sensor_id;sensor_type;location;lat;lon;timestamp;pressure;altitude;pressure_sealevel;temperature;humidity
61674;BME280;47573;43.832;5.974;2023-04-08T00:05:55;95017.13;;;23.71;57.74
61674;BME280;47573;43.832;5.974;2023-04-08T00:12:37;95016.50;;;23.64;57.83
61674;BME280;47573;43.832;5.974;2023-04-08T00:19:17;95013.16;;;23.57;57.77
61674;BME280;47573;43.832;5.974;2023-04-08T00:25:58;95021.25;;;23.52;57.91
61674;BME280;47573;43.832;5.974;2023-04-08T00:32:40;95018.53;;;23.52;57.40
61674;BME280;47573;43.832;5.974;2023-04-08T00:39:20;95015.69;;;23.42;57.57
61674;BME280;47573;43.832;5.974;2023-04-08T00:46:01;95007.03;;;23.45;57.74
61674;BME280;47573;43.832;5.974;2023-04-08T00:52:44;95022.34;;;23.51;57.32
61674;BME280;47573;43.832;5.974;2023-04-08T00:59:24;95013.53;;;23.44;57.43
61674;BME280;47573;43.832;5.974;2023-04-08T01:06:10;95017.28;;;23.38;57.44
61674;BME280;47573;43.832;5.974;2023-04-08T01:12:55;95013.97;;;23.36;57.64
61674;BME280;47573;43.832;5.974;2023-04-08T01:19:38;95007.69;;;23.36;57.20
61674;BME280;47573;43.832;5.974;2023-04-08T01:26:23;95004.66;;;23.32;57.45
61674;BME280;47573;43.832;5.974;2023-04-08T01:33:05;95001.03;;;23.27;57.20
61674;BME280;47573;43.832;5.974;2023-04-08T01:39:46;95015.13;;;23.24;57.43
61674;BME280;47573;43.832;5.974;2023-04-08T01:46:30;95012.97;;;23.26;57.24
61674;BME280;47573;43.832;5.974;2023-04-08T01:53:11;95005.25;;;23.17;57.52
61674;BME280;47573;43.832;5.974;2023-04-08T01:59:55;95002.25;;;23.19;57.12
61674;BME280;47573;43.832;5.974;2023-04-08T02:06:41;95009.47;;;23.08;57.61
61674;BME280;47573;43.832;5.974;2023-04-08T02:13:22;95022.84;;;23.10;57.24
61674;BME280;47573;43.832;5.974;2023-04-08T02:20:05;95026.59;;;23.04;57.19
61674;BME280;47573;43.832;5.974;2023-04-08T02:26:48;95035.31;;;23.06;57.19
61674;BME280;47573;43.832;5.974;2023-04-08T02:33:29;95041.56;;;23.06;57.09
61674;BME280;47573;43.832;5.974;2023-04-08T02:40:24;95040.13;;;22.99;57.33
61674;BME280;47573;43.832;5.974;2023-04-08T02:47:07;95041.94;;;22.93;57.55
61674;BME280;47573;43.832;5.974;2023-04-08T02:53:47;95031.78;;;22.89;57.26
61674;BME280;47573;43.832;5.974;2023-04-08T03:00:27;95030.13;;;22.88;57.21
61674;BME280;47573;43.832;5.974;2023-04-08T03:07:09;95019.00;;;22.89;56.82
61674;BME280;47573;43.832;5.974;2023-04-08T03:13:50;95020.34;;;22.87;56.89
61674;BME280;47573;43.832;5.974;2023-04-08T03:20:30;95019.19;;;22.83;57.19
61674;BME280;47573;43.832;5.974;2023-04-08T03:27:12;95019.50;;;22.86;57.06
61674;BME280;47573;43.832;5.974;2023-04-08T03:33:53;95014.75;;;22.77;57.02
61674;BME280;47573;43.832;5.974;2023-04-08T03:40:33;95017.13;;;22.73;57.04
61674;BME280;47573;43.832;5.974;2023-04-08T03:47:15;95026.09;;;22.74;56.89
61674;BME280;47573;43.832;5.974;2023-04-08T03:53:55;95030.41;;;22.70;57.08
61674;BME280;47573;43.832;5.974;2023-04-08T04:00:36;95029.25;;;22.66;57.26
61674;BME280;47573;43.832;5.974;2023-04-08T04:07:18;95028.16;;;22.67;56.92
61674;BME280;47573;43.832;5.974;2023-04-08T04:13:58;95016.63;;;22.60;56.98
61674;BME280;47573;43.832;5.974;2023-04-08T04:20:39;95013.19;;;22.64;56.76
61674;BME280;47573;43.832;5.974;2023-04-08T04:27:22;95015.81;;;22.59;56.73
61674;BME280;47573;43.832;5.974;2023-04-08T04:34:02;95016.03;;;22.58;56.89
61674;BME280;47573;43.832;5.974;2023-04-08T04:40:43;95023.03;;;22.54;56.79
61674;BME280;47573;43.832;5.974;2023-04-08T04:47:25;95025.09;;;22.47;56.78
61674;BME280;47573;43.832;5.974;2023-04-08T04:54:05;95035.13;;;22.46;56.62
61674;BME280;47573;43.832;5.974;2023-04-08T05:00:46;95036.97;;;22.40;56.88
61674;BME280;47573;43.832;5.974;2023-04-08T05:07:28;95037.22;;;22.39;56.66
61674;BME280;47573;43.832;5.974;2023-04-08T05:14:08;95022.44;;;22.35;57.01
61674;BME280;47573;43.832;5.974;2023-04-08T05:20:49;95027.06;;;22.34;56.60
61674;BME280;47573;43.832;5.974;2023-04-08T05:27:31;95040.09;;;22.32;56.93
61674;BME280;47573;43.832;5.974;2023-04-08T05:34:11;95047.34;;;22.27;55.44
61674;BME280;47573;43.832;5.974;2023-04-08T05:40:52;95044.69;;;21.87;48.52
61674;BME280;47573;43.832;5.974;2023-04-08T05:47:34;95051.34;;;21.68;45.54
61674;BME280;47573;43.832;5.974;2023-04-08T05:54:14;95045.78;;;21.63;44.37
61674;BME280;47573;43.832;5.974;2023-04-08T06:00:55;95061.63;;;21.54;43.92
61674;BME280;47573;43.832;5.974;2023-04-08T06:07:37;95063.69;;;21.47;43.12
61674;BME280;47573;43.832;5.974;2023-04-08T06:14:17;95075.50;;;21.30;42.06
61674;BME280;47573;43.832;5.974;2023-04-08T06:20:58;95085.31;;;21.31;41.69
61674;BME280;47573;43.832;5.974;2023-04-08T06:27:39;95101.13;;;21.34;44.33
61674;BME280;47573;43.832;5.974;2023-04-08T06:34:20;95092.56;;;21.65;48.10
61674;BME280;47573;43.832;5.974;2023-04-08T06:41:01;95094.56;;;21.70;50.73
61674;BME280;47573;43.832;5.974;2023-04-08T06:47:43;95103.41;;;21.88;51.61
61674;BME280;47573;43.832;5.974;2023-04-08T06:54:23;95106.81;;;21.95;52.06
61674;BME280;47573;43.832;5.974;2023-04-08T07:01:04;95109.03;;;21.98;52.41
61674;BME280;47573;43.832;5.974;2023-04-08T07:07:46;95115.88;;;22.12;51.96
61674;BME280;47573;43.832;5.974;2023-04-08T07:14:26;95117.03;;;22.16;52.67
61674;BME280;47573;43.832;5.974;2023-04-08T07:21:07;95124.09;;;22.17;52.88
61674;BME280;47573;43.832;5.974;2023-04-08T07:27:49;95116.34;;;22.09;53.12
61674;BME280;47573;43.832;5.974;2023-04-08T07:34:29;95121.38;;;22.17;53.08
61674;BME280;47573;43.832;5.974;2023-04-08T07:41:10;95130.50;;;22.11;54.22
61674;BME280;47573;43.832;5.974;2023-04-08T07:47:52;95135.47;;;22.14;54.89
61674;BME280;47573;43.832;5.974;2023-04-08T07:54:33;95143.25;;;22.22;54.71
61674;BME280;47573;43.832;5.974;2023-04-08T08:01:15;95146.75;;;22.34;54.60
61674;BME280;47573;43.832;5.974;2023-04-08T08:07:56;95149.56;;;22.39;53.84
61674;BME280;47573;43.832;5.974;2023-04-08T08:14:37;95152.69;;;22.48;53.62
61674;BME280;47573;43.832;5.974;2023-04-08T08:21:17;95163.44;;;22.55;53.33
61674;BME280;47573;43.832;5.974;2023-04-08T08:27:59;95164.41;;;22.60;53.48
61674;BME280;47573;43.832;5.974;2023-04-08T08:34:40;95164.22;;;22.67;53.02
61674;BME280;47573;43.832;5.974;2023-04-08T08:41:20;95167.53;;;22.69;52.92
61674;BME280;47573;43.832;5.974;2023-04-08T08:48:02;95175.34;;;22.77;52.95
61674;BME280;47573;43.832;5.974;2023-04-08T08:54:43;95178.22;;;22.87;52.90
61674;BME280;47573;43.832;5.974;2023-04-08T09:01:42;95173.25;;;22.84;52.87
61674;BME280;47573;43.832;5.974;2023-04-08T09:08:25;95184.25;;;22.89;52.42
61674;BME280;47573;43.832;5.974;2023-04-08T09:15:07;95181.59;;;22.94;52.54
61674;BME280;47573;43.832;5.974;2023-04-08T09:22:04;95183.34;;;23.00;52.52
61674;BME280;47573;43.832;5.974;2023-04-08T09:28:59;95183.91;;;23.02;52.19
61674;BME280;47573;43.832;5.974;2023-04-08T09:35:40;95179.06;;;23.04;52.41
61674;BME280;47573;43.832;5.974;2023-04-08T09:42:21;95183.19;;;23.06;52.12
61674;BME280;47573;43.832;5.974;2023-04-08T09:49:06;95181.38;;;23.12;52.37
61674;BME280;47573;43.832;5.974;2023-04-08T09:55:49;95188.78;;;23.16;52.20
61674;BME280;47573;43.832;5.974;2023-04-08T10:02:34;95191.28;;;23.18;52.27
61674;BME280;47573;43.832;5.974;2023-04-08T10:09:20;95183.69;;;23.20;52.09
61674;BME280;47573;43.832;5.974;2023-04-08T10:16:19;95170.72;;;23.27;51.95
61674;BME280;47573;43.832;5.974;2023-04-08T10:23:00;95176.09;;;23.22;52.26
61674;BME280;47573;43.832;5.974;2023-04-08T10:29:42;95179.72;;;23.28;52.16
61674;BME280;47573;43.832;5.974;2023-04-08T10:36:22;95171.28;;;23.29;52.10
61674;BME280;47573;43.832;5.974;2023-04-08T10:43:03;95170.84;;;23.32;52.33
61674;BME280;47573;43.832;5.974;2023-04-08T10:49:45;95165.41;;;23.32;52.36
61674;BME280;47573;43.832;5.974;2023-04-08T10:56:25;95172.47;;;23.33;52.47
61674;BME280;47573;43.832;5.974;2023-04-08T11:03:07;95157.94;;;23.44;52.05
61674;BME280;47573;43.832;5.974;2023-04-08T11:09:49;95159.25;;;23.42;52.23
61674;BME280;47573;43.832;5.974;2023-04-08T11:16:30;95138.88;;;23.44;52.06
61674;BME280;47573;43.832;5.974;2023-04-08T11:23:12;95144.91;;;23.46;52.10
61674;BME280;47573;43.832;5.974;2023-04-08T11:29:54;95126.91;;;23.45;52.59
61674;BME280;47573;43.832;5.974;2023-04-08T11:36:35;95122.59;;;23.49;52.23
61674;BME280;47573;43.832;5.974;2023-04-08T11:43:15;95115.59;;;23.53;51.98
61674;BME280;47573;43.832;5.974;2023-04-08T11:49:57;95116.97;;;23.56;51.75
61674;BME280;47573;43.832;5.974;2023-04-08T11:56:43;95110.69;;;23.55;51.93
61674;BME280;47573;43.832;5.974;2023-04-08T12:03:24;95119.94;;;23.54;51.99
61674;BME280;47573;43.832;5.974;2023-04-08T12:10:07;95100.28;;;23.52;52.34
61674;BME280;47573;43.832;5.974;2023-04-08T12:16:48;95093.34;;;23.61;52.15
61674;BME280;47573;43.832;5.974;2023-04-08T12:23:28;95091.09;;;23.58;51.93
61674;BME280;47573;43.832;5.974;2023-04-08T12:30:11;95086.88;;;23.67;52.37
61674;BME280;47573;43.832;5.974;2023-04-08T12:36:52;95084.41;;;23.66;52.22
61674;BME280;47573;43.832;5.974;2023-04-08T12:43:32;95077.38;;;23.70;51.99
61674;BME280;47573;43.832;5.974;2023-04-08T12:50:14;95077.13;;;23.71;52.20
61674;BME280;47573;43.832;5.974;2023-04-08T12:56:56;95067.72;;;23.62;52.38
61674;BME280;47573;43.832;5.974;2023-04-08T13:03:36;95065.91;;;23.68;52.39
61674;BME280;47573;43.832;5.974;2023-04-08T13:10:18;95065.19;;;23.77;52.11
61674;BME280;47573;43.832;5.974;2023-04-08T13:16:58;95049.94;;;23.76;52.17
61674;BME280;47573;43.832;5.974;2023-04-08T13:23:39;95050.50;;;23.78;52.51
61674;BME280;47573;43.832;5.974;2023-04-08T13:30:21;95050.81;;;23.82;52.46
61674;BME280;47573;43.832;5.974;2023-04-08T13:37:01;95050.53;;;23.83;52.55
61674;BME280;47573;43.832;5.974;2023-04-08T13:43:42;95052.25;;;23.89;52.66
61674;BME280;47573;43.832;5.974;2023-04-08T13:50:24;95048.44;;;23.90;52.54
61674;BME280;47573;43.832;5.974;2023-04-08T13:57:04;95050.09;;;23.91;52.54
61674;BME280;47573;43.832;5.974;2023-04-08T14:03:45;95034.84;;;23.95;52.47
61674;BME280;47573;43.832;5.974;2023-04-08T14:10:27;95030.50;;;23.94;52.51
61674;BME280;47573;43.832;5.974;2023-04-08T14:17:07;95027.25;;;23.97;52.56
61674;BME280;47573;43.832;5.974;2023-04-08T14:23:48;95021.28;;;24.01;51.94
61674;BME280;47573;43.832;5.974;2023-04-08T14:30:30;95016.34;;;23.97;52.82
61674;BME280;47573;43.832;5.974;2023-04-08T14:37:10;95015.97;;;24.11;52.87
61674;BME280;47573;43.832;5.974;2023-04-08T14:43:51;95018.22;;;24.19;53.27
61674;BME280;47573;43.832;5.974;2023-04-08T14:50:33;95022.06;;;24.18;53.39
61674;BME280;47573;43.832;5.974;2023-04-08T14:57:14;95017.44;;;24.18;53.80
61674;BME280;47573;43.832;5.974;2023-04-08T15:03:54;95025.44;;;24.30;54.05
61674;BME280;47573;43.832;5.974;2023-04-08T15:10:36;95018.84;;;24.26;54.04
61674;BME280;47573;43.832;5.974;2023-04-08T15:17:17;95024.41;;;24.36;53.93
61674;BME280;47573;43.832;5.974;2023-04-08T15:23:57;95008.56;;;24.33;54.43
61674;BME280;47573;43.832;5.974;2023-04-08T15:30:39;95013.50;;;24.36;54.74
61674;BME280;47573;43.832;5.974;2023-04-08T15:37:20;95011.94;;;24.45;54.64
61674;BME280;47573;43.832;5.974;2023-04-08T15:44:00;95003.78;;;24.50;54.62
61674;BME280;47573;43.832;5.974;2023-04-08T15:50:42;95007.53;;;24.39;55.11
61674;BME280;47573;43.832;5.974;2023-04-08T15:57:23;95013.06;;;24.49;55.51
61674;BME280;47573;43.832;5.974;2023-04-08T16:04:03;95017.50;;;24.55;55.21
61674;BME280;47573;43.832;5.974;2023-04-08T16:10:45;95016.38;;;24.56;55.99
61674;BME280;47573;43.832;5.974;2023-04-08T16:17:26;95015.09;;;24.63;55.86
61674;BME280;47573;43.832;5.974;2023-04-08T16:24:06;95019.22;;;24.66;56.07
61674;BME280;47573;43.832;5.974;2023-04-08T16:30:48;95012.22;;;24.75;55.99
61674;BME280;47573;43.832;5.974;2023-04-08T16:37:29;95024.31;;;24.89;55.40
61674;BME280;47573;43.832;5.974;2023-04-08T16:44:09;95019.91;;;24.83;55.41
61674;BME280;47573;43.832;5.974;2023-04-08T16:50:51;95020.41;;;24.75;55.98
61674;BME280;47573;43.832;5.974;2023-04-08T16:57:32;95020.41;;;24.75;55.75
61674;BME280;47573;43.832;5.974;2023-04-08T17:04:12;95025.91;;;24.80;55.84
61674;BME280;47573;43.832;5.974;2023-04-08T17:11:04;95029.00;;;24.62;55.68
61674;BME280;47573;43.832;5.974;2023-04-08T17:17:44;95036.72;;;24.70;55.65
61674;BME280;47573;43.832;5.974;2023-04-08T17:24:25;95030.03;;;24.56;56.46
61674;BME280;47573;43.832;5.974;2023-04-08T17:31:07;95027.38;;;24.61;56.11
61674;BME280;47573;43.832;5.974;2023-04-08T17:37:47;95039.00;;;24.78;56.65
61674;BME280;47573;43.832;5.974;2023-04-08T17:44:28;95032.44;;;24.74;57.20
61674;BME280;47573;43.832;5.974;2023-04-08T17:51:09;95033.00;;;24.81;57.56
61674;BME280;47573;43.832;5.974;2023-04-08T17:57:50;95042.31;;;24.85;57.59
61674;BME280;47573;43.832;5.974;2023-04-08T18:04:30;95043.50;;;24.94;57.32
61674;BME280;47573;43.832;5.974;2023-04-08T18:11:12;95054.94;;;24.91;57.44
61674;BME280;47573;43.832;5.974;2023-04-08T18:17:53;95066.25;;;25.05;57.17
61674;BME280;47573;43.832;5.974;2023-04-08T18:24:33;95059.13;;;25.04;57.08
61674;BME280;47573;43.832;5.974;2023-04-08T18:31:15;95064.38;;;25.10;57.69
61674;BME280;47573;43.832;5.974;2023-04-08T18:37:56;95077.09;;;25.31;57.48
61674;BME280;47573;43.832;5.974;2023-04-08T18:44:36;95085.63;;;25.40;57.64
61674;BME280;47573;43.832;5.974;2023-04-08T18:51:18;95088.13;;;25.41;57.78
61674;BME280;47573;43.832;5.974;2023-04-08T18:58:01;95104.00;;;25.44;57.63
61674;BME280;47573;43.832;5.974;2023-04-08T19:04:42;95117.13;;;25.47;58.00
61674;BME280;47573;43.832;5.974;2023-04-08T19:11:24;95130.28;;;25.50;58.44
61674;BME280;47573;43.832;5.974;2023-04-08T19:18:04;95141.50;;;25.54;58.57
61674;BME280;47573;43.832;5.974;2023-04-08T19:24:45;95163.66;;;25.58;59.22
61674;BME280;47573;43.832;5.974;2023-04-08T19:31:27;95172.44;;;25.60;59.65
61674;BME280;47573;43.832;5.974;2023-04-08T19:38:07;95186.41;;;25.63;59.77
61674;BME280;47573;43.832;5.974;2023-04-08T19:44:48;95197.91;;;25.65;59.99
61674;BME280;47573;43.832;5.974;2023-04-08T19:51:30;95202.56;;;25.65;60.13
61674;BME280;47573;43.832;5.974;2023-04-08T19:58:10;95210.81;;;25.70;60.32
61674;BME280;47573;43.832;5.974;2023-04-08T20:04:50;95214.09;;;25.72;60.44
61674;BME280;47573;43.832;5.974;2023-04-08T20:11:33;95215.19;;;25.71;60.33
61674;BME280;47573;43.832;5.974;2023-04-08T20:18:13;95211.38;;;25.72;60.38
61674;BME280;47573;43.832;5.974;2023-04-08T20:50:53;95230.75;;;25.38;58.88
61674;BME280;47573;43.832;5.974;2023-04-08T20:57:34;95232.09;;;25.36;58.96
61674;BME280;47573;43.832;5.974;2023-04-08T21:04:14;95227.97;;;25.33;58.62
61674;BME280;47573;43.832;5.974;2023-04-08T21:10:56;95228.75;;;25.29;58.92
61674;BME280;47573;43.832;5.974;2023-04-08T21:17:36;95229.00;;;25.27;58.97
61674;BME280;47573;43.832;5.974;2023-04-08T21:24:17;95228.38;;;25.20;58.99
61674;BME280;47573;43.832;5.974;2023-04-08T21:31:07;95235.22;;;25.18;58.91
61674;BME280;47573;43.832;5.974;2023-04-08T21:37:48;95243.06;;;25.09;59.08
61674;BME280;47573;43.832;5.974;2023-04-08T21:44:28;95241.97;;;25.10;59.38
61674;BME280;47573;43.832;5.974;2023-04-08T21:51:14;95238.63;;;25.03;59.12
61674;BME280;47573;43.832;5.974;2023-04-08T21:57:55;95251.72;;;25.01;59.30
61674;BME280;47573;43.832;5.974;2023-04-08T22:04:35;95245.06;;;24.92;59.15
61674;BME280;47573;43.832;5.974;2023-04-08T22:11:17;95246.53;;;24.78;59.38
61674;BME280;47573;43.832;5.974;2023-04-08T22:17:58;95235.47;;;24.68;59.82
61674;BME280;47573;43.832;5.974;2023-04-08T22:24:39;95249.06;;;24.63;59.92
61674;BME280;47573;43.832;5.974;2023-04-08T22:31:21;95261.50;;;24.54;60.00
61674;BME280;47573;43.832;5.974;2023-04-08T22:38:01;95251.09;;;24.51;59.91
61674;BME280;47573;43.832;5.974;2023-04-08T22:44:42;95253.31;;;24.54;59.52
61674;BME280;47573;43.832;5.974;2023-04-08T22:51:23;95247.81;;;24.49;59.26
61674;BME280;47573;43.832;5.974;2023-04-08T22:58:05;95263.53;;;24.42;59.57
61674;BME280;47573;43.832;5.974;2023-04-08T23:04:45;95259.09;;;24.36;59.86
61674;BME280;47573;43.832;5.974;2023-04-08T23:11:28;95264.41;;;24.26;59.88
61674;BME280;47573;43.832;5.974;2023-04-08T23:18:08;95264.16;;;24.27;59.41
61674;BME280;47573;43.832;5.974;2023-04-08T23:24:49;95264.69;;;24.24;59.51
61674;BME280;47573;43.832;5.974;2023-04-08T23:31:31;95265.72;;;24.23;59.44
61674;BME280;47573;43.832;5.974;2023-04-08T23:38:12;95270.88;;;24.20;59.36
61674;BME280;47573;43.832;5.974;2023-04-08T23:44:52;95260.53;;;24.22;59.04
61674;BME280;47573;43.832;5.974;2023-04-08T23:51:34;95249.88;;;24.20;59.21
61674;BME280;47573;43.832;5.974;2023-04-08T23:58:15;95252.03;;;24.18;59.17
